createdAt,value
2022-08-17T00:02:24.179Z,99599.03
2022-08-17T00:05:42.048Z,99601.50
2022-08-17T00:08:51.405Z,99605.94
2022-08-17T00:12:41.577Z,99605.13
2022-08-17T00:15:20.270Z,99599.72
2022-08-17T00:18:56.774Z,99597.94
2022-08-17T00:22:32.353Z,99590.72
2022-08-17T00:25:17.486Z,99597.97
2022-08-17T00:28:20.943Z,99601.09
2022-08-17T00:31:24.596Z,99600.69
2022-08-17T00:34:27.753Z,99602.94
2022-08-17T00:37:30.946Z,99605.91
2022-08-17T00:40:44.607Z,99611.75
2022-08-17T00:43:54.222Z,99605.63
2022-08-17T00:46:56.966Z,99605.91
2022-08-17T00:50:00.427Z,99606.59
2022-08-17T00:53:04.884Z,99606.94
2022-08-17T00:56:12.103Z,99609.16
2022-08-17T00:59:19.525Z,99599.47
2022-08-17T01:02:23.083Z,99616.88
2022-08-17T01:05:29.560Z,99615.03
2022-08-17T01:08:33.123Z,99614.88
2022-08-17T01:11:37.237Z,99610.78
2022-08-17T01:14:41.355Z,99608.09
2022-08-17T01:17:46.564Z,99611.50
2022-08-17T01:20:55.085Z,99604.53
2022-08-17T01:23:58.262Z,99596.44
2022-08-17T01:27:01.754Z,99600.16
2022-08-17T01:30:57.226Z,99600.97
2022-08-17T01:33:34.081Z,99599.75
2022-08-17T01:36:39.796Z,99594.41
2022-08-17T01:39:52.644Z,99607.50
2022-08-17T01:42:59.073Z,99606.69
2022-08-17T01:46:03.665Z,99603.22
2022-08-17T01:49:08.496Z,99606.69
2022-08-17T01:52:13.227Z,99608.78
2022-08-17T01:55:23.454Z,99605.72
2022-08-17T01:58:32.201Z,99620.41
2022-08-17T02:01:35.841Z,99609.00
2022-08-17T02:04:38.864Z,99615.44
2022-08-17T02:07:59.511Z,99617.69
2022-08-17T02:11:08.939Z,99618.03
2022-08-17T02:14:14.593Z,99619.16
2022-08-17T02:17:17.574Z,99616.34
2022-08-17T02:20:41.171Z,99631.16
2022-08-17T02:23:48.335Z,99627.25
2022-08-17T02:26:51.100Z,99626.66
2022-08-17T02:29:54.428Z,99630.41
2022-08-17T02:32:57.516Z,99628.69
2022-08-17T02:36:00.548Z,99632.38
2022-08-17T02:39:06.132Z,99633.16
2022-08-17T02:42:09.190Z,99629.50
2022-08-17T02:45:18.036Z,99632.12
2022-08-17T02:48:30.689Z,99637.59
2022-08-17T02:51:35.323Z,99630.41
2022-08-17T02:54:40.871Z,99632.75
2022-08-17T02:57:45.397Z,99632.84
2022-08-17T03:00:48.792Z,99630.50
2022-08-17T03:03:51.530Z,99636.56
2022-08-17T03:06:54.526Z,99634.22
2022-08-17T03:09:57.365Z,99638.84
2022-08-17T03:13:00.654Z,99626.16
2022-08-17T03:16:03.814Z,99640.41
2022-08-17T03:19:06.835Z,99637.97
2022-08-17T03:22:36.000Z,99635.97
2022-08-17T03:25:36.342Z,99646.53
2022-08-17T03:28:39.199Z,99638.69
2022-08-17T03:31:42.110Z,99637.50
2022-08-17T03:34:44.829Z,99627.56
2022-08-17T03:37:47.941Z,99634.63
2022-08-17T03:41:06.402Z,99641.63
2022-08-17T03:44:09.337Z,99642.28
2022-08-17T03:47:30.593Z,99648.78
2022-08-17T03:50:52.741Z,99645.56
2022-08-17T03:54:16.909Z,99650.37
2022-08-17T03:57:19.878Z,99649.03
2022-08-17T04:00:22.830Z,99644.78
2022-08-17T04:03:25.781Z,99653.06
2022-08-17T04:06:28.785Z,99651.72
2022-08-17T04:09:31.786Z,99649.50
2022-08-17T04:12:50.066Z,99662.28
2022-08-17T04:15:53.652Z,99659.13
2022-08-17T04:18:56.563Z,99654.41
2022-08-17T04:21:59.565Z,99663.97
2022-08-17T04:25:06.340Z,99655.78
2022-08-17T04:28:16.008Z,99660.47
2022-08-17T04:31:19.127Z,99664.84
2022-08-17T04:34:23.023Z,99668.53
2022-08-17T04:37:25.636Z,99664.84
2022-08-17T04:40:47.656Z,99665.97
2022-08-17T04:43:55.144Z,99676.72
2022-08-17T04:46:58.182Z,99677.56
2022-08-17T04:50:02.504Z,99690.72
2022-08-17T04:53:06.000Z,99691.22
2022-08-17T04:56:11.875Z,99694.91
2022-08-17T04:59:22.181Z,99694.13
2022-08-17T05:02:24.895Z,99690.81
2022-08-17T05:05:34.699Z,99699.00
2022-08-17T05:08:37.639Z,99694.84
2022-08-17T05:11:44.841Z,99694.59
2022-08-17T05:14:47.780Z,99695.53
2022-08-17T05:17:50.850Z,99704.84
2022-08-17T05:20:56.802Z,99708.38
2022-08-17T05:24:00.072Z,99691.94
2022-08-17T05:27:06.049Z,99691.88
2022-08-17T05:30:10.121Z,99691.00
2022-08-17T05:33:16.817Z,99697.41
2022-08-17T05:36:43.442Z,99713.28
2022-08-17T05:39:42.668Z,99698.38
2022-08-17T05:42:45.589Z,99709.81
2022-08-17T05:45:56.722Z,99716.06
2022-08-17T05:49:04.613Z,99714.97
2022-08-17T05:52:20.736Z,99721.78
2022-08-17T05:55:49.051Z,99714.22
2022-08-17T05:59:05.237Z,99722.53
2022-08-17T06:02:11.112Z,99721.16
2022-08-17T06:05:55.425Z,99719.69
2022-08-17T06:09:00.904Z,99721.06
2022-08-17T06:12:24.995Z,99725.34
2022-08-17T06:15:31.396Z,99724.25
2022-08-17T06:19:04.575Z,99725.47
2022-08-17T06:22:10.467Z,99720.13
2022-08-17T06:25:45.357Z,99729.84
2022-08-17T06:28:56.555Z,99727.13
2022-08-17T06:31:59.567Z,99732.59
2022-08-17T06:35:03.292Z,99725.94
2022-08-17T06:38:37.710Z,99739.59
2022-08-17T06:41:47.570Z,99734.50
2022-08-17T06:45:03.601Z,99744.19
2022-08-17T06:48:24.370Z,99742.44
2022-08-17T06:51:34.678Z,99736.69
2022-08-17T06:54:51.102Z,99747.41
2022-08-17T06:58:05.228Z,99743.91
2022-08-17T07:41:57.504Z,99748.41
2022-08-17T07:45:23.355Z,99747.41
2022-08-17T07:48:26.992Z,99744.09
2022-08-17T07:51:55.532Z,99739.38
2022-08-17T07:54:59.496Z,99747.59
2022-08-17T07:58:03.497Z,99750.31
2022-08-17T08:01:10.685Z,99740.31
2022-08-17T08:04:43.172Z,99742.28
2022-08-17T08:07:55.016Z,99742.56
2022-08-17T08:11:07.312Z,99743.59
2022-08-17T08:14:34.143Z,99749.97
2022-08-17T08:17:49.507Z,99745.66
2022-08-17T08:20:57.824Z,99753.03
2022-08-17T08:24:19.618Z,99753.72
2022-08-17T08:28:15.791Z,99757.16
2022-08-17T08:31:24.530Z,99754.63
2022-08-17T08:35:01.945Z,99751.03
2022-08-17T08:38:10.909Z,99750.34
2022-08-17T08:41:40.640Z,99757.34
2022-08-17T08:48:57.767Z,99755.00
2022-08-17T08:52:04.957Z,99753.91
2022-08-17T08:55:14.883Z,99745.41
2022-08-17T08:58:41.807Z,99748.28
2022-08-17T09:02:18.747Z,99745.88
2022-08-17T09:05:54.178Z,99745.53
2022-08-17T09:09:27.956Z,99738.69
2022-08-17T09:13:10.254Z,99746.03
2022-08-17T09:16:20.478Z,99746.38
2022-08-17T09:19:49.801Z,99741.31
2022-08-17T09:23:07.204Z,99743.78
2022-08-17T09:26:28.101Z,99742.00
2022-08-17T09:29:47.985Z,99746.19
2022-08-17T09:33:02.332Z,99742.28
2022-08-17T09:36:23.002Z,99740.03
2022-08-17T09:39:34.639Z,99734.97
2022-08-17T09:43:00.898Z,99740.72
2022-08-17T09:46:11.448Z,99733.72
2022-08-17T09:49:49.598Z,99740.78
2022-08-17T09:52:59.441Z,99731.12
2022-08-17T09:56:24.217Z,99733.72
2022-08-17T09:59:36.559Z,99721.72
2022-08-17T10:03:00.571Z,99729.91
2022-08-17T10:06:57.040Z,99722.00
2022-08-17T10:10:14.353Z,99735.44
2022-08-17T10:13:52.745Z,99727.16
2022-08-17T10:17:20.734Z,99726.91
2022-08-17T10:21:20.715Z,99727.03
2022-08-17T10:25:21.477Z,99717.72
2022-08-17T10:28:28.925Z,99708.06
2022-08-17T10:31:41.073Z,99723.06
2022-08-17T10:35:25.861Z,99724.69
2022-08-17T10:38:37.126Z,99716.25
2022-08-17T12:43:56.562Z,99638.66
2022-08-17T12:47:19.358Z,99626.94
2022-08-17T12:50:29.014Z,99628.66
2022-08-17T12:53:37.078Z,99625.94
2022-08-17T12:56:40.795Z,99622.72
2022-08-17T12:59:53.769Z,99627.34
2022-08-17T13:03:07.915Z,99630.09
2022-08-17T13:06:14.931Z,99622.25
2022-08-17T13:09:35.692Z,99617.19
2022-08-17T13:12:43.203Z,99613.16
2022-08-17T13:15:56.378Z,99617.12
2022-08-17T13:19:15.225Z,99604.37
2022-08-17T13:22:25.532Z,99607.94
2022-08-17T13:25:29.977Z,99607.28
2022-08-17T13:28:35.946Z,99611.91
2022-08-17T13:31:52.148Z,99607.59
2022-08-17T13:35:15.038Z,99609.88
2022-08-17T13:39:04.606Z,99601.34
2022-08-17T13:42:52.381Z,99601.31
2022-08-17T13:46:08.861Z,99599.91
2022-08-17T13:49:12.150Z,99594.97
2022-08-17T13:52:35.706Z,99596.44
2022-08-17T13:55:48.990Z,99591.72
2022-08-17T13:58:55.736Z,99596.91
2022-08-17T14:01:59.014Z,99590.91
2022-08-17T14:05:02.137Z,99594.91
2022-08-17T14:08:13.205Z,99592.22
2022-08-17T14:11:17.132Z,99593.03
2022-08-17T14:14:21.835Z,99582.25
2022-08-17T14:17:26.056Z,99583.66
2022-08-17T14:20:29.619Z,99583.31
2022-08-17T14:23:32.966Z,99588.44
2022-08-17T14:26:36.168Z,99586.03
2022-08-17T14:29:41.211Z,99584.47
2022-08-17T14:32:45.179Z,99574.19
2022-08-17T14:35:54.899Z,99582.91
2022-08-17T14:38:57.773Z,99582.37
2022-08-17T15:37:34.130Z,99574.44
2022-08-17T15:40:45.614Z,99568.91
2022-08-17T15:43:52.382Z,99583.59
2022-08-17T15:46:56.012Z,99575.94
2022-08-17T15:50:00.376Z,99578.97
2022-08-17T15:53:04.916Z,99577.44
2022-08-17T15:56:07.935Z,99579.06
2022-08-17T15:59:10.878Z,99583.22
2022-08-17T16:03:44.223Z,99578.25
2022-08-17T16:06:01.999Z,99578.53
2022-08-17T16:09:05.131Z,99579.56
2022-08-17T16:12:28.252Z,99570.78
2022-08-17T16:15:32.938Z,99570.19
2022-08-17T16:18:36.628Z,99568.09
2022-08-17T16:21:42.790Z,99574.19
2022-08-17T16:24:57.010Z,99570.25
2022-08-17T16:28:00.776Z,99573.16
2022-08-17T16:31:07.951Z,99573.94
2022-08-17T16:34:16.731Z,99564.16
2022-08-17T16:48:29.726Z,99564.28
2022-08-17T16:51:33.190Z,99564.28
2022-08-17T16:54:38.684Z,99570.28
2022-08-17T16:57:50.085Z,99573.41
2022-08-17T17:00:54.478Z,99571.88
2022-08-17T17:04:02.823Z,99573.28
2022-08-17T17:07:33.861Z,99578.34
2022-08-17T17:10:40.667Z,99580.69
2022-08-17T17:13:51.829Z,99581.69
2022-08-17T17:17:11.859Z,99583.09
2022-08-17T17:20:24.987Z,99588.78
2022-08-17T17:23:46.290Z,99590.37
2022-08-17T17:27:09.296Z,99590.47
2022-08-17T17:30:12.806Z,99593.38
2022-08-17T17:33:25.048Z,99596.28
2022-08-17T17:36:38.397Z,99588.03
2022-08-17T17:40:19.126Z,99599.34
2022-08-17T17:43:38.975Z,99602.28
2022-08-17T17:46:48.749Z,99603.66
2022-08-17T17:49:52.008Z,99606.06
2022-08-17T17:53:11.381Z,99603.91
2022-08-17T17:56:44.158Z,99608.59
2022-08-17T17:59:59.982Z,99611.44
2022-08-17T18:03:12.037Z,99617.03
2022-08-17T18:06:48.192Z,99614.34
2022-08-17T18:09:54.044Z,99617.38
2022-08-17T18:13:14.467Z,99618.53
2022-08-17T18:16:17.400Z,99625.47
2022-08-17T18:19:21.468Z,99628.41
2022-08-17T18:22:25.422Z,99626.63
2022-08-17T18:25:45.112Z,99635.37
2022-08-17T18:28:51.384Z,99624.22
2022-08-17T18:32:21.746Z,99633.00
2022-08-17T18:35:29.215Z,99641.69
2022-08-17T18:38:42.095Z,99639.34
2022-08-17T18:41:51.270Z,99640.66
2022-08-17T18:44:55.560Z,99647.41
2022-08-17T18:48:33.040Z,99647.06
2022-08-17T18:51:42.448Z,99640.44
2022-08-17T18:55:20.063Z,99641.72
2022-08-17T18:58:25.737Z,99656.94
2022-08-17T19:01:52.236Z,99649.94
2022-08-17T19:05:09.611Z,99656.97
2022-08-17T19:08:14.244Z,99657.81
2022-08-17T19:11:26.297Z,99662.47
2022-08-17T19:14:31.114Z,99662.47
2022-08-17T19:18:16.407Z,99659.38
2022-08-17T19:21:42.351Z,99661.69
2022-08-17T19:24:47.563Z,99668.72
2022-08-17T19:28:15.341Z,99659.00
2022-08-17T19:31:29.961Z,99664.03
2022-08-17T19:34:35.376Z,99672.53
2022-08-17T19:37:47.522Z,99662.41
2022-08-17T19:41:16.109Z,99658.87
2022-08-17T19:44:33.985Z,99657.72
2022-08-17T19:47:54.861Z,99655.75
2022-08-17T19:51:07.560Z,99660.38
2022-08-17T19:54:38.127Z,99658.37
2022-08-17T19:57:51.081Z,99657.59
2022-08-17T20:00:55.417Z,99655.19
2022-08-17T20:04:39.192Z,99655.19
2022-08-17T20:07:57.355Z,99655.12
2022-08-17T20:11:09.006Z,99655.91
2022-08-17T20:14:22.480Z,99652.81
2022-08-17T20:17:31.791Z,99654.34
2022-08-17T20:20:51.854Z,99651.22
2022-08-17T20:24:01.010Z,99655.09
2022-08-17T20:27:12.796Z,99655.44
2022-08-17T20:30:42.106Z,99649.59
2022-08-17T20:33:44.830Z,99653.84
2022-08-17T20:36:58.465Z,99655.75
2022-08-17T20:40:04.255Z,99655.69
2022-08-17T20:43:33.826Z,99653.38
2022-08-17T20:46:36.445Z,99643.22
2022-08-17T20:49:48.397Z,99653.31
2022-08-17T20:52:57.156Z,99641.25
2022-08-17T20:56:00.190Z,99643.22
2022-08-17T20:59:03.184Z,99648.69
2022-08-17T21:02:12.441Z,99638.19
2022-08-17T21:06:00.338Z,99644.81
2022-08-17T21:09:12.726Z,99654.00
2022-08-17T21:12:39.735Z,99650.75
2022-08-17T21:15:50.023Z,99651.19
2022-08-17T21:19:10.163Z,99648.16
2022-08-17T21:22:25.213Z,99656.56
2022-08-17T21:25:58.307Z,99652.94
2022-08-17T21:29:31.608Z,99663.72
2022-08-17T21:32:37.436Z,99667.56
2022-08-17T21:36:16.015Z,99672.87
2022-08-17T21:39:33.037Z,99674.41
2022-08-17T21:42:39.610Z,99676.59
2022-08-17T21:45:43.554Z,99684.12
2022-08-17T21:48:48.215Z,99692.84
2022-08-17T21:51:55.165Z,99682.09
2022-08-17T21:55:03.333Z,99696.97
2022-08-17T21:58:29.032Z,99695.50
2022-08-17T22:01:36.498Z,99694.78
2022-08-17T22:04:41.724Z,99703.72
2022-08-17T22:07:50.858Z,99706.03
2022-08-17T22:11:01.583Z,99696.25
2022-08-17T22:14:17.108Z,99710.91
2022-08-17T22:17:24.844Z,99720.88
2022-08-17T22:20:28.117Z,99720.47
2022-08-17T22:24:01.392Z,99724.25
2022-08-17T22:27:11.836Z,99723.78
2022-08-17T22:30:24.343Z,99716.63
2022-08-17T22:33:33.398Z,99717.34
2022-08-17T22:36:37.210Z,99718.81
2022-08-17T22:39:40.847Z,99722.28
2022-08-17T22:42:49.928Z,99719.50
2022-08-17T22:45:57.532Z,99717.47
2022-08-17T22:49:00.709Z,99725.19
2022-08-17T22:52:06.874Z,99731.72
